Washington, MI (48094)

9:12 AM EST on February 01, 2015 (GMT -0500)
Pinwood Estates | Change Station
CLOSE
Current Station
Personal Weather Station
Location: Shelby Township, MI
Elevation: 675 ft
Nearby Weather Stations

Elev 675 ft 42.71 °N, 83.04 °W | Updated 3 seconds ago

Snow
Snow
21.2 °F
Feels Like 11 °F
N
9.2
Wind Variable Wind from NE
Gusts 9.8 mph

Today
High -- | Low -- °F
--% Chance of Precip.
Yesterday
High -- | Low -- °F
Precip. -- in
7:46 AM 5:44 PM
Waxing Gibbous, 95% visible
Pressure 30.22 in
Visibility 1.5 miles
Clouds Scattered Clouds 1000 ft
Overcast 2100 ft
Windchill 11 °F
Dew Point 15 °F
Humidity 76%
Rainfall 0.00 in
Snow Depth Not available.
UV 0 out of 12
Pollen .10 out of 12
Air Quality Not available.
Flu Activity Not available.
METAR KMTC 011355Z 04010KT 1 1/2SM -SN BR SCT010 OVC021 M05/M07 A3016 RMK SCT010 V BKN SLP231 T10531072

More Conditions Fewer Conditions

Pressure 30.22 in
Visibility 1.5 miles
Clouds Scattered Clouds 1000 ft
Overcast 2100 ft
Windchill 11 °F
Dew Point 15 °F
Humidity 76%
Rainfall 0.00 in
Snow Depth Not available.
UV 0 out of 12
Pollen .10 out of 12
Air Quality Not available.
Flu Activity Not available.
METAR KMTC 011355Z 04010KT 1 1/2SM -SN BR SCT010 OVC021 M05/M07 A3016 RMK SCT010 V BKN SLP231 T10531072

More Conditions Fewer Conditions

10-Day Weather Forecast

Almanac

Astronomy

Feb. 01, 2015 Rise Set
Actual Time
Civil Twilight
Nautical Twilight
Astronomical Twilight
Moon
Length of Visible Light
Length of Day
Tomorrow will be .
, % of the Moon is Illuminated

Today's Extremes

State Highs State Lows

Community

WunderPhotos

Upload Photos

1,792,362 photos uploaded!

WunderBlogs® & News

Nearby

Air Quality

  Air Quality AQ Index Pollutant
Not available.

Snow Depth

Station Depth Elevation

Earthquake Activity

City Distance Mag. Time & Date
Minimum magnitude displayed is 2.5.

Coastal Water Temperatures

Place Temperature

Nearby Weather Stations